createdAt,value
2023-01-18T00:02:47.306Z,18.73
2023-01-18T00:08:11.108Z,21.83
2023-01-18T00:13:33.899Z,21.37
2023-01-18T00:18:58.848Z,18.43
2023-01-18T00:24:23.230Z,22.20
2023-01-18T00:29:45.524Z,21.17
2023-01-18T00:35:08.812Z,21.77
2023-01-18T00:40:32.557Z,24.80
2023-01-18T00:45:55.092Z,23.47
2023-01-18T00:51:18.808Z,26.30
2023-01-18T00:56:42.114Z,27.73
2023-01-18T01:02:04.933Z,27.82
2023-01-18T01:07:27.895Z,35.00
2023-01-18T01:13:08.223Z,35.33
2023-01-18T01:18:49.792Z,38.33
2023-01-18T01:24:30.181Z,36.68
2023-01-18T01:29:53.087Z,39.53
2023-01-18T01:35:15.873Z,35.03
2023-01-18T01:40:38.569Z,36.50
2023-01-18T01:46:01.054Z,35.30
2023-01-18T01:51:24.933Z,31.48
2023-01-18T01:56:48.880Z,41.50
2023-01-18T02:02:12.089Z,40.73
2023-01-18T02:07:35.018Z,35.60
2023-01-18T02:13:00.828Z,36.42
2023-01-18T02:18:34.172Z,36.38
2023-01-18T02:24:27.481Z,36.50
2023-01-18T02:30:22.149Z,38.78
2023-01-18T02:36:06.992Z,37.42
2023-01-18T02:42:00.120Z,34.58
2023-01-18T02:53:02.052Z,30.73
2023-01-18T02:58:35.229Z,36.23
2023-01-18T03:04:02.422Z,37.77
2023-01-18T03:09:27.520Z,36.40
2023-01-18T03:15:30.903Z,34.33
2023-01-18T03:20:58.497Z,37.83
2023-01-18T03:26:25.209Z,33.70
2023-01-18T03:32:19.278Z,39.97
2023-01-18T03:37:46.422Z,39.63
2023-01-18T03:43:23.244Z,42.47
2023-01-18T03:48:46.856Z,44.83
2023-01-18T03:54:28.697Z,40.33
2023-01-18T03:59:56.242Z,43.23
2023-01-18T04:05:19.407Z,45.60
2023-01-18T04:10:41.707Z,48.50
2023-01-18T04:16:05.213Z,44.33
2023-01-18T04:21:27.833Z,46.00
2023-01-18T04:26:50.741Z,45.53
2023-01-18T04:32:13.622Z,41.13
2023-01-18T04:37:37.608Z,41.67
2023-01-18T04:43:06.814Z,42.37
2023-01-18T04:48:29.994Z,50.40
2023-01-18T04:53:54.326Z,43.97
2023-01-18T04:59:18.884Z,42.20
2023-01-18T05:04:42.351Z,47.03
2023-01-18T05:10:04.742Z,39.10
2023-01-18T05:15:27.787Z,43.60
2023-01-18T05:20:50.113Z,37.85
2023-01-18T05:26:15.292Z,42.85
2023-01-18T05:31:38.267Z,40.58
2023-01-18T05:37:01.187Z,42.80
2023-01-18T05:42:24.079Z,44.53
2023-01-18T05:47:46.419Z,43.40
2023-01-18T05:53:11.398Z,40.38
2023-01-18T05:58:34.268Z,40.13
2023-01-18T06:03:56.932Z,41.57
2023-01-18T06:09:19.342Z,36.07
2023-01-18T06:14:41.933Z,37.07
2023-01-18T06:20:04.376Z,33.90
2023-01-18T06:25:30.744Z,35.00
2023-01-18T06:30:53.162Z,36.73
2023-01-18T06:36:16.319Z,37.53
2023-01-18T06:41:40.245Z,37.07
2023-01-18T06:47:03.403Z,35.90
2023-01-18T06:52:25.800Z,33.83
2023-01-18T06:57:48.929Z,42.13
2023-01-18T07:03:11.284Z,38.73
2023-01-18T07:08:36.778Z,38.47
2023-01-18T07:13:59.574Z,37.98
2023-01-18T07:19:22.397Z,38.80
2023-01-18T07:24:45.880Z,39.80
2023-01-18T07:30:09.268Z,38.80
2023-01-18T07:35:33.760Z,38.55
2023-01-18T07:40:56.324Z,40.40
2023-01-18T07:46:22.035Z,39.65
2023-01-18T07:51:45.243Z,48.65
2023-01-18T07:57:08.188Z,39.90
2023-01-18T08:02:30.997Z,44.57
2023-01-18T08:07:54.010Z,38.78
2023-01-18T08:13:18.691Z,43.47
2023-01-18T08:18:42.610Z,47.43
2023-01-18T08:24:07.842Z,46.50
2023-01-18T08:29:30.148Z,44.35
2023-01-18T08:34:52.959Z,47.23
2023-01-18T08:40:16.587Z,43.67
2023-01-18T08:45:40.155Z,49.93
2023-01-18T08:51:04.133Z,40.45
2023-01-18T08:56:27.365Z,40.93
2023-01-18T09:01:50.027Z,42.60
2023-01-18T09:07:12.741Z,44.60
2023-01-18T09:12:35.630Z,42.23
2023-01-18T09:17:59.557Z,37.23
2023-01-18T09:23:23.218Z,49.60
2023-01-18T09:28:46.633Z,39.43
2023-01-18T09:34:18.862Z,45.28
2023-01-18T09:39:50.811Z,33.90
2023-01-18T09:45:07.259Z,40.13
2023-01-18T09:50:34.212Z,39.95
2023-01-18T09:56:12.877Z,42.90
2023-01-18T10:01:42.974Z,40.92
2023-01-18T10:07:13.208Z,37.83
2023-01-18T10:12:53.151Z,39.10
2023-01-18T10:18:16.258Z,39.80
2023-01-18T10:23:58.446Z,35.40
2023-01-18T10:29:49.724Z,32.93
2023-01-18T10:35:14.573Z,33.58
2023-01-18T10:40:37.535Z,34.37
2023-01-18T10:46:00.441Z,32.47
2023-01-18T10:51:35.563Z,30.70
2023-01-18T10:57:10.117Z,32.97
2023-01-18T11:02:44.076Z,33.33
2023-01-18T11:08:36.403Z,52.38
2023-01-18T11:14:02.046Z,32.95
2023-01-18T11:19:30.071Z,33.40
2023-01-18T11:24:52.735Z,32.00
2023-01-18T11:30:29.721Z,30.73
2023-01-18T11:36:00.049Z,31.33
2023-01-18T11:41:29.182Z,30.05
2023-01-18T11:47:11.185Z,31.40
2023-01-18T11:53:04.797Z,42.48
2023-01-18T11:58:40.518Z,32.90
2023-01-18T12:04:07.770Z,29.10
2023-01-18T12:09:47.430Z,31.20
2023-01-18T12:15:54.023Z,28.40
2023-01-18T12:21:47.348Z,34.73
2023-01-18T12:27:26.024Z,34.67
2023-01-18T12:33:42.518Z,40.60
2023-01-18T12:39:04.772Z,32.77
2023-01-18T12:44:38.293Z,29.40
2023-01-18T12:50:08.977Z,27.37
2023-01-18T12:55:40.026Z,32.67
2023-01-18T13:01:07.596Z,55.47
2023-01-18T13:06:32.059Z,25.87
2023-01-18T13:11:58.765Z,26.87
2023-01-18T13:17:54.210Z,26.40
2023-01-18T13:23:37.007Z,27.57
2023-01-18T13:29:20.202Z,37.00
2023-01-18T13:35:19.711Z,32.67
2023-01-18T13:40:43.900Z,33.47
2023-01-18T13:46:23.006Z,23.33
2023-01-18T13:52:02.001Z,28.30
2023-01-18T13:57:27.635Z,28.70
2023-01-18T14:02:56.678Z,24.80
2023-01-18T14:14:01.316Z,24.23
2023-01-18T14:19:31.036Z,28.30
2023-01-18T14:25:22.290Z,24.53
2023-01-18T14:30:50.037Z,23.42
2023-01-18T14:36:18.150Z,25.90
2023-01-18T14:41:44.424Z,23.07
2023-01-18T14:47:23.558Z,27.32
2023-01-18T14:52:40.351Z,23.57
2023-01-18T14:58:19.420Z,20.45
2023-01-18T15:03:43.910Z,21.00
2023-01-18T15:09:09.941Z,20.32
2023-01-18T15:14:38.975Z,21.73
2023-01-18T15:20:05.924Z,22.70
2023-01-18T15:25:41.533Z,24.72
2023-01-18T15:31:14.688Z,26.52
2023-01-18T15:36:37.260Z,24.43
2023-01-18T15:42:02.731Z,25.48
2023-01-18T15:47:43.056Z,23.02
2023-01-18T15:53:14.364Z,25.40
2023-01-18T15:58:56.296Z,27.20
2023-01-18T16:04:29.605Z,29.12
2023-01-18T16:09:51.953Z,25.87
2023-01-18T16:15:16.206Z,24.72
2023-01-18T16:20:39.283Z,27.17
2023-01-18T16:26:09.794Z,29.85
2023-01-18T16:31:33.789Z,29.63
2023-01-18T16:36:56.687Z,29.23
2023-01-18T16:42:29.662Z,27.15
2023-01-18T16:47:46.465Z,26.42
2023-01-18T16:53:09.327Z,25.82
2023-01-18T16:58:33.891Z,26.50
2023-01-18T17:03:56.895Z,25.88
2023-01-18T17:09:47.314Z,28.05
2023-01-18T17:15:01.480Z,25.10
2023-01-18T17:20:29.356Z,21.00
2023-01-18T17:25:51.717Z,20.92
2023-01-18T17:31:14.058Z,21.27
2023-01-18T17:36:36.521Z,22.77
2023-01-18T17:41:59.007Z,23.87
2023-01-18T17:47:24.626Z,26.75
2023-01-18T17:52:48.187Z,29.92
2023-01-18T17:58:10.625Z,30.30
2023-01-18T18:03:32.973Z,29.23
2023-01-18T18:08:56.140Z,25.17
2023-01-18T18:14:18.468Z,33.90
2023-01-18T18:19:42.090Z,37.67
2023-01-18T18:25:05.225Z,43.38
2023-01-18T18:30:28.928Z,39.92
2023-01-18T18:35:51.551Z,41.63
2023-01-18T18:41:17.425Z,39.00
2023-01-18T18:46:40.499Z,40.90
2023-01-18T18:52:03.287Z,47.27
2023-01-18T18:57:27.032Z,41.48
2023-01-18T19:02:49.895Z,39.75
2023-01-18T19:08:12.743Z,39.18
2023-01-18T19:13:35.176Z,40.58
2023-01-18T19:18:57.447Z,42.53
2023-01-18T19:24:19.979Z,37.03
2023-01-18T19:29:42.917Z,40.13
2023-01-18T19:35:05.762Z,39.18
2023-01-18T19:40:29.616Z,36.48
2023-01-18T19:45:52.578Z,40.60
2023-01-18T19:51:23.266Z,39.53
2023-01-18T19:56:43.517Z,36.80
2023-01-18T20:02:06.171Z,39.83
2023-01-18T20:07:29.398Z,43.70
2023-01-18T20:12:52.200Z,56.58
2023-01-18T20:18:14.711Z,45.45
2023-01-18T20:23:37.897Z,46.42
2023-01-18T20:29:02.505Z,44.03
2023-01-18T20:34:25.557Z,53.80
2023-01-18T20:39:47.894Z,44.10
2023-01-18T20:45:10.241Z,48.55
2023-01-18T20:50:32.643Z,46.23
2023-01-18T20:55:55.898Z,44.53
2023-01-18T21:01:27.619Z,40.03
2023-01-18T21:06:51.079Z,34.90
2023-01-18T21:12:13.577Z,39.40
2023-01-18T21:17:36.135Z,33.58
2023-01-18T21:22:58.531Z,35.40
2023-01-18T21:28:20.949Z,42.45
2023-01-18T21:33:44.922Z,41.43
2023-01-18T21:39:08.142Z,44.83
2023-01-18T21:44:48.765Z,42.73
2023-01-18T21:50:29.543Z,49.73
2023-01-18T21:55:53.460Z,43.30
2023-01-18T22:01:20.930Z,49.88
2023-01-18T22:06:43.524Z,50.15
2023-01-18T22:12:06.225Z,49.20
2023-01-18T22:17:28.540Z,42.27
2023-01-18T22:22:51.317Z,47.88
2023-01-18T22:28:13.635Z,44.45
2023-01-18T22:33:36.347Z,47.78
2023-01-18T22:38:58.724Z,46.40
2023-01-18T22:44:22.163Z,47.70
2023-01-18T22:49:44.488Z,44.63
2023-01-18T22:55:07.217Z,48.78
2023-01-18T23:00:30.209Z,50.30
2023-01-18T23:05:54.376Z,47.73
2023-01-18T23:11:30.788Z,54.70
2023-01-18T23:17:11.735Z,48.80
2023-01-18T23:22:34.036Z,50.30
2023-01-18T23:27:56.491Z,52.73
2023-01-18T23:33:18.775Z,45.57
2023-01-18T23:38:59.168Z,54.30
2023-01-18T23:44:39.446Z,49.60
2023-01-18T23:50:19.434Z,51.17
2023-01-18T23:55:41.778Z,48.97
